No particular awareness of the weather is required.    There are no Weather-warnings


Meteo18 Weather Cam more information Meteo18 Weather Cam


Thunder radar more information blitzortung!


Rain radar more information rain snow radar


Visit our other weather sites:

Template documentation
and downloads

And another site



Weather Underground History page Text

Daily Summary for June 2, 2017 Units:  English    Metric   Both
« Previous Day
Next Day »
Daily Weekly Monthly Yearly Custom
  High: Low: Average:
Temperature: TemperatureC °F 14.3 °F 21.4 °F
Dew Point: DewpointC °F 13.3 °F 16 °F
Humidity: Humidity % 49 % 73 %
Wind Speed: WindSpeedKMH mph 0.0 mph 3 mph
Wind Gust: WindSpeedGustKMH mph - -
Wind:- - SW
Pressure: PressurehPa in 1015.1 in -
Precipitation: 0.0 in    
Historical Graphs
 
 
Tabular Data for June 2, 2017
Time Temperature Dew Point Pressure Wind Wind Speed Wind Gust Humidity Rainfall Rate (Hourly)
TemperatureC °F DewpointC °F PressurehPa in Calm     Humidity % HourlyPrecipMM in
00:02 18.4 °F 15.5 °F 1019.2 in NNW 1.6 mph 3.2 mph 83 % 0.0 in
00:12 18.2 °F 15.5 °F 1018.8 in Calm   3.2 mph 84 % 0.0 in
00:17 18.1 °F 15.4 °F 1018.8 in Calm   3.2 mph 84 % 0.0 in
00:22 17.8 °F 15.2 °F 1018.8 in Calm   3.2 mph 85 % 0.0 in
00:27 17.7 °F 15.1 °F 1018.8 in Calm     85 % 0.0 in
00:32 17.5 °F 14.9 °F 1018.8 in Calm     85 % 0.0 in
00:37 17.3 °F 14.9 °F 1018.8 in Calm     86 % 0.0 in
00:42 17.0 °F 14.6 °F 1018.8 in Calm     86 % 0.0 in
00:47 16.8 °F 14.6 °F 1018.8 in Calm     87 % 0.0 in
00:52 16.8 °F 15.0 °F 1018.8 in Calm     89 % 0.0 in
00:57 16.9 °F 15.1 °F 1018.8 in Calm   1.6 mph 89 % 0.0 in
01:02 16.9 °F 14.9 °F 1018.8 in Calm   1.6 mph 88 % 0.0 in
01:07 16.8 °F 15.0 °F 1018.8 in Calm   1.6 mph 89 % 0.0 in
01:12 16.7 °F 14.9 °F 1018.5 in Calm     89 % 0.0 in
01:17 16.7 °F 14.9 °F 1018.8 in Calm     89 % 0.0 in
01:22 16.7 °F 14.9 °F 1018.8 in East 1.6 mph   89 % 0.0 in
01:32 16.6 °F 14.8 °F 1018.5 in Calm   3.2 mph 89 % 0.0 in
01:37 16.6 °F 14.8 °F 1018.5 in Calm   3.2 mph 89 % 0.0 in
01:42 16.2 °F 14.2 °F 1018.5 in Calm   3.2 mph 88 % 0.0 in
01:47 16.2 °F 14.7 °F 1018.5 in Calm   3.2 mph 91 % 0.0 in
01:52 16.3 °F 14.7 °F 1018.5 in Calm   3.2 mph 90 % 0.0 in
02:02 15.9 °F 14.3 °F 1018.8 in Calm   1.6 mph 90 % 0.0 in
02:12 15.8 °F 14.3 °F 1018.5 in WNW 3.2 mph 3.2 mph 91 % 0.0 in
02:17 16.0 °F 14.7 °F 1018.5 in WNW 4.8 mph 4.8 mph 92 % 0.0 in
02:22 16.3 °F 15.0 °F 1018.5 in WNW 1.6 mph 4.8 mph 92 % 0.0 in
02:27 16.3 °F 14.7 °F 1018.5 in Calm   4.8 mph 90 % 0.0 in
02:32 16.2 °F 14.6 °F 1018.2 in North 3.2 mph 4.8 mph 90 % 0.0 in
02:37 16.1 °F 14.5 °F 1018.2 in NNW 3.2 mph 4.8 mph 90 % 0.0 in
02:42 16.1 °F 14.5 °F 1018.2 in North 4.8 mph 4.8 mph 90 % 0.0 in
02:47 16.0 °F 14.5 °F 1018.2 in NNW 1.6 mph 4.8 mph 91 % 0.0 in
02:52 16.1 °F 14.6 °F 1018.2 in NNW 1.6 mph 4.8 mph 91 % 0.0 in
02:57 16.2 °F 14.6 °F 1018.2 in Calm   4.8 mph 90 % 0.0 in
03:02 16.0 °F 14.4 °F 1018.2 in East 3.2 mph 4.8 mph 90 % 0.0 in
03:12 15.7 °F 14.2 °F 1018.2 in Calm   4.8 mph 91 % 0.0 in
03:17 15.7 °F 14.2 °F 1018.2 in Calm   4.8 mph 91 % 0.0 in
03:22 15.6 °F 14.1 °F 1017.8 in Calm   1.6 mph 91 % 0.0 in
03:27 15.7 °F 14.4 °F 1017.8 in WNW 1.6 mph 1.6 mph 92 % 0.0 in
03:32 15.7 °F 14.2 °F 1017.8 in Calm   1.6 mph 91 % 0.0 in
03:37 15.8 °F 14.5 °F 1017.8 in Calm   1.6 mph 92 % 0.0 in
03:42 15.7 °F 14.2 °F 1017.8 in NNE 3.2 mph 3.2 mph 91 % 0.0 in
03:47 15.5 °F 14.0 °F 1018.2 in Calm   3.2 mph 91 % 0.0 in
03:52 15.2 °F 13.7 °F 1017.8 in North 1.6 mph 3.2 mph 91 % 0.0 in
03:57 15.1 °F 13.8 °F 1017.8 in Calm   3.2 mph 92 % 0.0 in
04:02 15.1 °F 14.0 °F 1017.8 in NNW 1.6 mph 3.2 mph 93 % 0.0 in
04:07 15.2 °F 13.9 °F 1017.8 in WNW 1.6 mph 3.2 mph 92 % 0.0 in
04:12 15.1 °F 14.0 °F 1017.8 in Calm   3.2 mph 93 % 0.0 in
04:17 15.1 °F 14.0 °F 1017.8 in Calm   3.2 mph 93 % 0.0 in
04:22 15.2 °F 14.2 °F 1017.8 in NNW 1.6 mph 3.2 mph 94 % 0.0 in
04:27 15.3 °F 14.2 °F 1017.8 in Calm   3.2 mph 93 % 0.0 in
04:32 15.2 °F 14.1 °F 1017.8 in NNW 1.6 mph 3.2 mph 93 % 0.0 in
04:37 15.3 °F 14.3 °F 1017.8 in Calm   3.2 mph 94 % 0.0 in
04:42 15.2 °F 14.1 °F 1017.8 in NW 1.6 mph 1.6 mph 93 % 0.0 in
04:47 15.0 °F 13.9 °F 1017.8 in NW 1.6 mph 1.6 mph 93 % 0.0 in
04:52 15.2 °F 14.2 °F 1017.8 in Calm   1.6 mph 94 % 0.0 in
04:57 15.1 °F 14.0 °F 1017.8 in Calm   1.6 mph 93 % 0.0 in
05:02 14.9 °F 13.8 °F 1017.8 in Calm   1.6 mph 93 % 0.0 in
05:12 14.7 °F 13.7 °F 1017.8 in Calm   1.6 mph 94 % 0.0 in
05:17 14.7 °F 13.7 °F 1017.8 in Calm   1.6 mph 94 % 0.0 in
05:22 14.8 °F 13.8 °F 1017.8 in Calm   1.6 mph 94 % 0.0 in
05:27 14.7 °F 13.7 °F 1017.8 in Calm   1.6 mph 94 % 0.0 in
05:32 14.6 °F 13.6 °F 1017.8 in Calm   1.6 mph 94 % 0.0 in
05:37 14.4 °F 13.4 °F 1017.8 in Calm     94 % 0.0 in
05:42 14.3 °F 13.3 °F 1017.8 in Calm   1.6 mph 94 % 0.0 in
05:47 14.4 °F 13.6 °F 1017.8 in Calm   1.6 mph 95 % 0.0 in
05:52 14.4 °F 13.6 °F 1017.8 in Calm   1.6 mph 95 % 0.0 in
05:57 14.4 °F 13.6 °F 1017.8 in Calm   1.6 mph 95 % 0.0 in
06:02 14.7 °F 14.1 °F 1017.8 in Calm     96 % 0.0 in
06:07 14.7 °F 13.9 °F 1017.8 in Calm     95 % 0.0 in
06:12 14.6 °F 13.8 °F 1017.8 in Calm     95 % 0.0 in
06:17 14.8 °F 14.2 °F 1017.8 in Calm     96 % 0.0 in
06:22 15.1 °F 14.5 °F 1017.8 in Calm     96 % 0.0 in
06:27 15.1 °F 14.3 °F 1017.8 in Calm     95 % 0.0 in
06:32 15.0 °F 14.2 °F 1017.8 in Calm     95 % 0.0 in
06:42 15.2 °F 14.2 °F 1017.8 in Calm     94 % 0.0 in
06:47 15.2 °F 14.2 °F 1018.2 in Calm     94 % 0.0 in
06:57 15.4 °F 14.4 °F 1018.2 in Calm     94 % 0.0 in
07:02 15.5 °F 14.5 °F 1018.2 in Calm     94 % 0.0 in
07:12 16.3 °F 15.5 °F 1018.2 in Calm     95 % 0.0 in
07:17 16.7 °F 15.7 °F 1018.2 in Calm     94 % 0.0 in
07:22 16.9 °F 15.6 °F 1018.2 in Calm     92 % 0.0 in
07:27 16.8 °F 15.3 °F 1018.2 in Calm     91 % 0.0 in
07:32 17.0 °F 15.7 °F 1018.2 in Calm     92 % 0.0 in
07:37 17.6 °F 16.3 °F 1018.2 in Calm     92 % 0.0 in
07:42 17.9 °F 15.9 °F 1018.2 in Calm     88 % 0.0 in
07:47 18.2 °F 16.0 °F 1018.2 in Calm   1.6 mph 87 % 0.0 in
07:52 18.4 °F 15.8 °F 1018.2 in Calm   1.6 mph 85 % 0.0 in
07:57 18.7 °F 15.8 °F 1018.2 in Calm   1.6 mph 83 % 0.0 in
08:02 18.9 °F 15.9 °F 1018.2 in Calm     83 % 0.0 in
08:07 18.7 °F 15.8 °F 1018.2 in Calm   3.2 mph 83 % 0.0 in
08:12 18.9 °F 15.9 °F 1018.2 in Calm   3.2 mph 83 % 0.0 in
08:17 19.3 °F 16.3 °F 1018.5 in Calm   3.2 mph 83 % 0.0 in
08:22 19.2 °F 16.1 °F 1018.5 in SE 3.2 mph 3.2 mph 82 % 0.0 in
08:27 19.0 °F 15.9 °F 1018.5 in Calm   6.4 mph 82 % 0.0 in
08:32 19.0 °F 16.0 °F 1018.5 in Calm   6.4 mph 83 % 0.0 in
08:37 19.1 °F 16.0 °F 1018.5 in SSW 1.6 mph 6.4 mph 82 % 0.0 in
08:42 19.3 °F 16.3 °F 1018.5 in Calm   4.8 mph 83 % 0.0 in
08:47 19.4 °F 16.1 °F 1018.5 in Calm   4.8 mph 81 % 0.0 in
08:52 19.4 °F 16.2 °F 1018.5 in Calm   6.4 mph 82 % 0.0 in
08:57 19.6 °F 16.6 °F 1018.5 in Calm   6.4 mph 83 % 0.0 in
09:02 19.7 °F 16.3 °F 1018.5 in Calm   4.8 mph 81 % 0.0 in
09:07 19.8 °F 16.4 °F 1018.5 in Calm   3.2 mph 81 % 0.0 in
09:12 19.9 °F 16.7 °F 1018.5 in Calm   4.8 mph 82 % 0.0 in
09:17 20.1 °F 16.7 °F 1018.5 in SSE 1.6 mph 4.8 mph 81 % 0.0 in
09:22 20.4 °F 17.0 °F 1018.5 in Calm   6.4 mph 81 % 0.0 in
09:27 20.9 °F 17.3 °F 1018.5 in Calm   6.4 mph 80 % 0.0 in
09:32 21.1 °F 17.1 °F 1018.5 in South 1.6 mph 4.8 mph 78 % 0.0 in
09:37 20.8 °F 16.8 °F 1018.5 in SW 6.4 mph 6.4 mph 78 % 0.0 in
09:42 20.7 °F 16.9 °F 1018.5 in Calm   6.4 mph 79 % 0.0 in
09:47 20.9 °F 16.9 °F 1018.5 in SW 4.8 mph 6.4 mph 78 % 0.0 in
09:52 21.1 °F 17.1 °F 1018.5 in ESE 1.6 mph 6.4 mph 78 % 0.0 in
09:57 21.5 °F 17.3 °F 1018.5 in Calm   6.4 mph 77 % 0.0 in
10:02 21.9 °F 17.9 °F 1018.2 in SSW 1.6 mph 8.0 mph 78 % 0.0 in
10:07 22.2 °F 17.6 °F 1018.5 in Calm   8.0 mph 75 % 0.0 in
10:12 22.4 °F 17.7 °F 1018.2 in Calm   8.0 mph 75 % 0.0 in
10:17 22.3 °F 17.4 °F 1018.2 in SSW 6.4 mph 6.4 mph 74 % 0.0 in
10:22 22.2 °F 18.0 °F 1018.5 in Calm   8.0 mph 77 % 0.0 in
10:27 22.7 °F 18.0 °F 1018.5 in South 6.4 mph 8.0 mph 75 % 0.0 in
10:32 22.8 °F 18.1 °F 1018.2 in SW 6.4 mph 8.0 mph 75 % 0.0 in
10:37 22.8 °F 17.7 °F 1018.2 in SE 1.6 mph 8.0 mph 73 % 0.0 in
10:42 23.3 °F 18.0 °F 1018.2 in SE 3.2 mph 8.0 mph 72 % 0.0 in
10:47 23.1 °F 17.6 °F 1018.2 in SSW 1.6 mph 8.0 mph 71 % 0.0 in
10:52 23.3 °F 18.0 °F 1018.2 in Calm   8.0 mph 72 % 0.0 in
11:02 23.6 °F 18.0 °F 1017.8 in SSW 3.2 mph 8.0 mph 71 % 0.0 in
11:07 23.8 °F 17.5 °F 1018.2 in South 8.0 mph 8.0 mph 68 % 0.0 in
11:12 23.8 °F 17.5 °F 1018.2 in East 3.2 mph 8.0 mph 68 % 0.0 in
11:17 23.9 °F 17.6 °F 1018.2 in SW 3.2 mph 9.7 mph 68 % 0.0 in
11:22 23.9 °F 17.4 °F 1018.2 in SE 1.6 mph 9.7 mph 67 % 0.0 in
11:32 24.3 °F 17.1 °F 1018.2 in SSW 8.0 mph 11.3 mph 64 % 0.0 in
11:37 24.4 °F 17.4 °F 1018.2 in SW 3.2 mph 9.7 mph 65 % 0.0 in
11:42 24.5 °F 17.0 °F 1017.8 in SW 3.2 mph 9.7 mph 63 % 0.0 in
11:47 24.7 °F 17.2 °F 1017.8 in SW 4.8 mph 11.3 mph 63 % 0.0 in
11:52 24.8 °F 17.0 °F 1017.8 in SE 4.8 mph 12.9 mph 62 % 0.0 in
11:57 24.8 °F 17.3 °F 1017.8 in ENE 3.2 mph 12.9 mph 63 % 0.0 in
12:02 25.1 °F 17.3 °F 1017.8 in SE 3.2 mph 12.9 mph 62 % 0.0 in
12:12 25.4 °F 17.3 °F 1017.8 in Calm   9.7 mph 61 % 0.0 in
12:17 25.9 °F 17.3 °F 1017.8 in ESE 4.8 mph 9.7 mph 59 % 0.0 in
12:22 25.8 °F 17.4 °F 1017.8 in ESE 3.2 mph 11.3 mph 60 % 0.0 in
12:27 25.8 °F 17.7 °F 1017.8 in SW 8.0 mph 11.3 mph 61 % 0.0 in
12:32 25.9 °F 18.1 °F 1017.8 in South 4.8 mph 11.3 mph 62 % 0.0 in
12:37 26.0 °F 16.8 °F 1017.8 in WSW 6.4 mph 9.7 mph 57 % 0.0 in
12:42 25.9 °F 16.2 °F 1017.8 in SW 11.3 mph 12.9 mph 55 % 0.0 in
12:47 26.0 °F 16.5 °F 1017.8 in ESE 8.0 mph 12.9 mph 56 % 0.0 in
12:52 26.3 °F 16.5 °F 1017.8 in SW 3.2 mph 11.3 mph 55 % 0.0 in
12:57 26.3 °F 16.0 °F 1017.8 in SW 3.2 mph 11.3 mph 53 % 0.0 in
13:02 26.1 °F 16.4 °F 1017.8 in WSW 3.2 mph 16.1 mph 55 % 0.0 in
13:12 26.7 °F 16.9 °F 1017.5 in SW 6.4 mph 11.3 mph 55 % 0.0 in
13:17 26.6 °F 17.1 °F 1017.5 in Calm   16.1 mph 56 % 0.0 in
13:22 26.6 °F 17.4 °F 1017.5 in South 4.8 mph 16.1 mph 57 % 0.0 in
13:27 26.4 °F 16.3 °F 1017.5 in SSW 8.0 mph 16.1 mph 54 % 0.0 in
13:32 26.4 °F 15.4 °F 1017.5 in West 4.8 mph 14.5 mph 51 % 0.0 in
13:37 26.6 °F 16.5 °F 1017.2 in WSW 6.4 mph 14.5 mph 54 % 0.0 in
13:42 27.0 °F 16.6 °F 1017.2 in SE 6.4 mph 12.9 mph 53 % 0.0 in
13:47 27.1 °F 16.4 °F 1017.2 in WSW 8.0 mph 11.3 mph 52 % 0.0 in
13:52 27.1 °F 17.0 °F 1017.2 in WSW 3.2 mph 16.1 mph 54 % 0.0 in
13:57 26.9 °F 17.1 °F 1017.2 in South 12.9 mph 16.1 mph 55 % 0.0 in
14:02 27.1 °F 17.8 °F 1017.2 in SW 14.5 mph 16.1 mph 57 % 0.0 in
14:07 26.9 °F 17.1 °F 1017.2 in SSW 6.4 mph 17.7 mph 55 % 0.0 in
14:12 26.8 °F 17.0 °F 1017.2 in SW 12.9 mph 19.3 mph 55 % 0.0 in
14:17 26.8 °F 17.3 °F 1017.2 in WSW 4.8 mph 19.3 mph 56 % 0.0 in
14:22 26.9 °F 16.8 °F 1016.8 in WSW 8.0 mph 19.3 mph 54 % 0.0 in
14:27 26.9 °F 16.8 °F 1016.8 in SSW 9.7 mph 16.1 mph 54 % 0.0 in
14:32 27.2 °F 16.8 °F 1016.8 in SSW 3.2 mph 14.5 mph 53 % 0.0 in
14:37 27.3 °F 17.2 °F 1016.8 in SSW 9.7 mph 14.5 mph 54 % 0.0 in
14:42 27.3 °F 16.6 °F 1016.8 in Calm   17.7 mph 52 % 0.0 in
14:47 27.7 °F 16.0 °F 1016.8 in SSW 9.7 mph 17.7 mph 49 % 0.0 in
14:57 27.8 °F 16.4 °F 1016.5 in SSE 6.4 mph 17.7 mph 50 % 0.0 in
15:02 27.8 °F 16.7 °F 1016.5 in SSW 8.0 mph 17.7 mph 51 % 0.0 in
15:07 27.8 °F 16.4 °F 1016.5 in SW 4.8 mph 17.7 mph 50 % 0.0 in
15:12 27.8 °F 16.7 °F 1016.5 in WSW 6.4 mph 17.7 mph 51 % 0.0 in
15:17 27.4 °F 16.1 °F 1016.5 in WSW 6.4 mph 16.1 mph 50 % 0.0 in
15:22 27.0 °F 16.3 °F 1016.5 in WNW 1.6 mph 16.1 mph 52 % 0.0 in
15:27 27.3 °F 16.9 °F 1016.5 in WNW 4.8 mph 14.5 mph 53 % 0.0 in
15:32 27.2 °F 15.9 °F 1016.5 in West 9.7 mph 17.7 mph 50 % 0.0 in
15:37 26.5 °F 17.3 °F 1016.5 in West 9.7 mph 19.3 mph 57 % 0.0 in
15:42 25.8 °F 17.4 °F 1016.5 in WSW 14.5 mph 22.5 mph 60 % 0.0 in
15:47 25.4 °F 16.5 °F 1016.5 in West 11.3 mph 22.5 mph 58 % 0.0 in
15:52 25.4 °F 16.8 °F 1016.5 in WNW 9.7 mph 22.5 mph 59 % 0.0 in
15:57 25.7 °F 16.3 °F 1016.5 in West 9.7 mph 20.9 mph 56 % 0.0 in
16:02 25.8 °F 16.4 °F 1016.5 in West 8.0 mph 20.9 mph 56 % 0.0 in
16:07 25.8 °F 16.6 °F 1016.5 in WSW 3.2 mph 16.1 mph 57 % 0.0 in
16:12 25.8 °F 16.6 °F 1016.5 in WNW 6.4 mph 14.5 mph 57 % 0.0 in
16:17 25.7 °F 16.8 °F 1016.1 in West 9.7 mph 14.5 mph 58 % 0.0 in
16:22 25.9 °F 17.3 °F 1016.1 in West 8.0 mph 12.9 mph 59 % 0.0 in
16:27 25.9 °F 17.3 °F 1016.1 in WSW 3.2 mph 12.9 mph 59 % 0.0 in
16:32 26.1 °F 17.5 °F 1016.1 in West 4.8 mph 12.9 mph 59 % 0.0 in
16:37 26.3 °F 17.4 °F 1016.1 in WNW 4.8 mph 14.5 mph 58 % 0.0 in
16:42 26.7 °F 16.6 °F 1016.1 in West 6.4 mph 14.5 mph 54 % 0.0 in
16:47 27.1 °F 17.3 °F 1016.1 in WSW 3.2 mph 14.5 mph 55 % 0.0 in
16:52 27.4 °F 18.1 °F 1016.1 in WNW 4.8 mph 12.9 mph 57 % 0.0 in
16:57 27.3 °F 16.3 °F 1016.1 in West 8.0 mph 12.9 mph 51 % 0.0 in
17:02 27.2 °F 17.1 °F 1016.1 in SW 4.8 mph 17.7 mph 54 % 0.0 in
17:07 27.2 °F 16.8 °F 1016.1 in SW 8.0 mph 17.7 mph 53 % 0.0 in
17:12 27.2 °F 16.8 °F 1016.1 in WSW 9.7 mph 16.1 mph 53 % 0.0 in
17:17 27.2 °F 17.1 °F 1016.1 in SW 9.7 mph 16.1 mph 54 % 0.0 in
17:22 27.4 °F 17.0 °F 1016.1 in WNW 4.8 mph 16.1 mph 53 % 0.0 in
17:27 27.6 °F 17.5 °F 1015.8 in West 4.8 mph 16.1 mph 54 % 0.0 in
17:32 27.7 °F 16.9 °F 1015.8 in SW 9.7 mph 12.9 mph 52 % 0.0 in
17:37 27.5 °F 16.5 °F 1015.8 in SW 3.2 mph 12.9 mph 51 % 0.0 in
17:42 27.4 °F 17.6 °F 1015.8 in WSW 8.0 mph 17.7 mph 55 % 0.0 in
17:47 27.4 °F 17.6 °F 1015.8 in West 4.8 mph 17.7 mph 55 % 0.0 in
17:52 27.5 °F 17.1 °F 1015.8 in SW 4.8 mph 17.7 mph 53 % 0.0 in
17:57 27.7 °F 17.2 °F 1015.8 in SSW 6.4 mph 16.1 mph 53 % 0.0 in
18:02 27.6 °F 17.5 °F 1015.5 in South 4.8 mph 16.1 mph 54 % 0.0 in
18:07 27.8 °F 17.0 °F 1015.8 in WSW 6.4 mph 16.1 mph 52 % 0.0 in
18:12 27.8 °F 16.7 °F 1015.5 in West 9.7 mph 12.9 mph 51 % 0.0 in
18:17 27.7 °F 16.3 °F 1015.5 in SW 11.3 mph 14.5 mph 50 % 0.0 in
18:22 27.6 °F 16.6 °F 1015.5 in SW 6.4 mph 14.5 mph 51 % 0.0 in
18:27 27.7 °F 16.6 °F 1015.5 in West 4.8 mph 17.7 mph 51 % 0.0 in
18:32 27.5 °F 16.8 °F 1015.5 in WSW 8.0 mph 17.7 mph 52 % 0.0 in
18:42 27.0 °F 16.6 °F 1015.1 in WSW 6.4 mph 14.5 mph 53 % 0.0 in
18:47 26.7 °F 16.3 °F 1015.5 in WSW 4.8 mph 14.5 mph 53 % 0.0 in
18:52 26.4 °F 16.6 °F 1015.5 in WSW 4.8 mph 14.5 mph 55 % 0.0 in
18:57 26.2 °F 16.7 °F 1015.5 in WSW 4.8 mph 14.5 mph 56 % 0.0 in
19:02 26.0 °F 16.8 °F 1015.5 in SW 3.2 mph 11.3 mph 57 % 0.0 in
19:07 25.8 °F 16.6 °F 1015.5 in West 8.0 mph 11.3 mph 57 % 0.0 in
19:12 25.4 °F 16.8 °F 1015.5 in WSW 11.3 mph 16.1 mph 59 % 0.0 in
19:17 24.9 °F 17.4 °F 1015.5 in West 12.9 mph 17.7 mph 63 % 0.0 in
19:22 24.4 °F 17.1 °F 1015.5 in WSW 8.0 mph 19.3 mph 64 % 0.0 in
19:27 24.2 °F 17.4 °F 1015.5 in West 3.2 mph 19.3 mph 66 % 0.0 in
19:32 24.2 °F 17.4 °F 1015.5 in WNW 3.2 mph 14.5 mph 66 % 0.0 in
19:42 24.3 °F 16.8 °F 1015.5 in WSW 4.8 mph 9.7 mph 63 % 0.0 in
19:47 24.3 °F 16.0 °F 1015.5 in West 4.8 mph 9.7 mph 60 % 0.0 in
19:52 24.3 °F 16.3 °F 1015.5 in West 1.6 mph 9.7 mph 61 % 0.0 in
19:57 24.4 °F 16.1 °F 1015.8 in West 1.6 mph 9.7 mph 60 % 0.0 in
20:02 24.7 °F 16.7 °F 1015.8 in WNW 1.6 mph 8.0 mph 61 % 0.0 in
20:07 24.8 °F 16.5 °F 1015.8 in West 3.2 mph 6.4 mph 60 % 0.0 in
20:12 25.1 °F 16.5 °F 1015.8 in West 3.2 mph 6.4 mph 59 % 0.0 in
20:17 25.1 °F 16.5 °F 1015.5 in West 1.6 mph 6.4 mph 59 % 0.0 in
20:22 25.2 °F 16.9 °F 1015.8 in WNW 1.6 mph 6.4 mph 60 % 0.0 in
20:32 25.2 °F 17.1 °F 1015.5 in West 1.6 mph 4.8 mph 61 % 0.0 in
20:37 25.1 °F 17.0 °F 1015.5 in West 1.6 mph 4.8 mph 61 % 0.0 in
20:42 24.9 °F 17.1 °F 1015.8 in West 3.2 mph 8.0 mph 62 % 0.0 in
20:47 24.7 °F 17.2 °F 1015.8 in WSW 3.2 mph 8.0 mph 63 % 0.0 in
20:52 24.4 °F 17.4 °F 1015.8 in West 4.8 mph 8.0 mph 65 % 0.0 in
20:57 24.2 °F 17.7 °F 1015.8 in WSW 1.6 mph 6.4 mph 67 % 0.0 in
21:02 23.9 °F 17.6 °F 1015.8 in WSW 3.2 mph 6.4 mph 68 % 0.0 in
21:07 23.7 °F 17.7 °F 1015.8 in WSW 4.8 mph 6.4 mph 69 % 0.0 in
21:12 23.6 °F 17.6 °F 1015.8 in West 3.2 mph 6.4 mph 69 % 0.0 in
21:17 23.3 °F 17.5 °F 1015.8 in WSW 3.2 mph 6.4 mph 70 % 0.0 in
21:22 23.3 °F 17.5 °F 1015.8 in West 1.6 mph 6.4 mph 70 % 0.0 in
21:27 23.1 °F 17.6 °F 1015.8 in West 1.6 mph 4.8 mph 71 % 0.0 in
21:32 22.9 °F 17.6 °F 1015.8 in WSW 1.6 mph 4.8 mph 72 % 0.0 in
21:37 22.7 °F 17.4 °F 1016.1 in Calm   4.8 mph 72 % 0.0 in
21:42 22.6 °F 17.5 °F 1016.1 in WNW 1.6 mph 4.8 mph 73 % 0.0 in
21:47 22.4 °F 17.3 °F 1016.1 in WNW 1.6 mph 3.2 mph 73 % 0.0 in
21:52 22.2 °F 16.9 °F 1016.5 in NNW 11.3 mph 11.3 mph 72 % 0.0 in
22:02 21.7 °F 15.3 °F 1016.5 in NNE 3.2 mph 27.4 mph 67 % 0.0 in
22:07 21.5 °F 15.3 °F 1016.5 in WNW 3.2 mph 17.7 mph 68 % 0.0 in
22:12 21.3 °F 15.2 °F 1016.5 in NNW 3.2 mph 12.9 mph 68 % 0.0 in
22:22 21.0 °F 15.3 °F 1016.5 in NW 1.6 mph 8.0 mph 70 % 0.0 in
22:27 20.8 °F 15.3 °F 1016.5 in Calm   6.4 mph 71 % 0.0 in
22:32 20.6 °F 15.2 °F 1016.5 in Calm   4.8 mph 71 % 0.0 in
22:37 20.6 °F 15.4 °F 1016.5 in Calm   3.2 mph 72 % 0.0 in
22:42 20.4 °F 15.6 °F 1016.5 in Calm   3.2 mph 74 % 0.0 in
22:47 20.3 °F 15.7 °F 1016.5 in Calm   3.2 mph 75 % 0.0 in
22:52 20.2 °F 15.8 °F 1016.5 in NW 1.6 mph 3.2 mph 76 % 0.0 in
22:57 20.3 °F 15.9 °F 1016.5 in Calm   3.2 mph 76 % 0.0 in
23:02 20.3 °F 16.1 °F 1016.5 in Calm   3.2 mph 77 % 0.0 in
23:12 19.8 °F 15.7 °F 1016.8 in Calm   6.4 mph 77 % 0.0 in
23:17 19.7 °F 15.6 °F 1016.8 in Calm   6.4 mph 77 % 0.0 in
23:22 19.6 °F 15.5 °F 1016.8 in Calm   4.8 mph 77 % 0.0 in
23:27 19.4 °F 15.7 °F 1016.8 in Calm   1.6 mph 79 % 0.0 in
23:37 18.9 °F 15.8 °F 1016.8 in NE 3.2 mph 6.4 mph 82 % 0.0 in
23:42 19.0 °F 16.0 °F 1016.8 in Calm   6.4 mph 83 % 0.0 in
23:47 19.0 °F 16.0 °F 1016.8 in Calm   6.4 mph 83 % 0.0 in
23:52 18.9 °F 15.9 °F 1016.5 in Calm   4.8 mph 83 % 0.0 in
23:57 18.9 °F 16.3 °F 1016.5 in Calm   1.6 mph 85 % 0.0 in
Meteo18
Compliments of Weather Underground - 4 mb

Script developed by  Jim McMurry - jmcmurry@mwt.net Adapted for the template by  Wim van der Kuil - Leuven-Template.eu

You find our weather info also at:

European Weather Network

Weather Underground

Equipment we use:

Weather-station
Davis Vue

Weather-program
Meteobridge

Weather-server
Raspberry PI 2 B+

Provider
1 and 1

Davis Vue

Meteobridge

Raspberry PI 2 B+

1 and 1